createdAt,value
2022-12-20T00:01:45.021Z,2.50
2022-12-20T00:04:12.826Z,2.30
2022-12-20T00:06:41.356Z,2.17
2022-12-20T00:09:11.541Z,2.40
2022-12-20T00:11:43.416Z,2.47
2022-12-20T00:14:10.668Z,2.83
2022-12-20T00:16:38.203Z,2.70
2022-12-20T00:19:07.891Z,2.17
2022-12-20T00:21:36.249Z,2.20
2022-12-20T00:24:05.178Z,2.87
2022-12-20T00:26:35.085Z,2.07
2022-12-20T00:29:02.643Z,2.10
2022-12-20T00:31:31.972Z,2.23
2022-12-20T00:34:01.634Z,2.43
2022-12-20T00:36:31.646Z,1.90
2022-12-20T00:39:00.593Z,2.53
2022-12-20T00:41:33.302Z,2.10
2022-12-20T00:44:00.793Z,2.10
2022-12-20T00:46:28.340Z,2.10
2022-12-20T00:48:55.968Z,2.10
2022-12-20T00:51:29.361Z,2.30
2022-12-20T00:53:56.491Z,2.40
2022-12-20T00:56:23.644Z,2.50
2022-12-20T00:58:54.773Z,2.00
2022-12-20T01:01:25.156Z,2.30
2022-12-20T01:03:53.597Z,2.40
2022-12-20T01:06:22.098Z,2.40
2022-12-20T01:08:48.797Z,1.90
2022-12-20T01:11:23.115Z,2.03
2022-12-20T01:13:54.597Z,2.33
2022-12-20T01:16:26.935Z,1.90
2022-12-20T01:18:55.536Z,1.93
2022-12-20T01:21:27.294Z,2.50
2022-12-20T01:23:55.509Z,1.90
2022-12-20T01:26:26.171Z,1.77
2022-12-20T01:28:59.281Z,2.10
2022-12-20T01:31:28.797Z,2.23
2022-12-20T01:33:59.420Z,1.90
2022-12-20T01:36:31.661Z,2.40
2022-12-20T01:39:08.593Z,2.43
2022-12-20T01:41:37.586Z,1.90
2022-12-20T01:44:24.221Z,2.20
2022-12-20T01:46:52.632Z,2.73
2022-12-20T01:49:32.349Z,2.33
2022-12-20T01:52:09.305Z,2.23
2022-12-20T01:55:05.422Z,2.43
2022-12-20T01:57:49.156Z,2.50
2022-12-20T02:00:17.270Z,2.07
2022-12-20T02:02:47.868Z,1.93
2022-12-20T02:05:18.999Z,1.93
2022-12-20T02:07:52.135Z,2.03
2022-12-20T02:10:24.502Z,2.20
2022-12-20T02:13:03.674Z,2.27
2022-12-20T02:16:01.187Z,2.00
2022-12-20T02:18:47.468Z,2.30
2022-12-20T02:21:39.438Z,2.23
2022-12-20T02:24:40.029Z,1.97
2022-12-20T02:27:44.879Z,2.03
2022-12-20T02:30:23.975Z,2.10
2022-12-20T02:33:08.479Z,2.20
2022-12-20T02:35:39.314Z,2.40
2022-12-20T02:38:32.717Z,2.50
2022-12-20T02:41:11.187Z,2.17
2022-12-20T02:44:02.991Z,2.43
2022-12-20T02:46:32.289Z,1.77
2022-12-20T02:49:07.226Z,2.10
2022-12-20T02:51:34.928Z,2.40
2022-12-20T02:54:02.440Z,2.17
2022-12-20T02:57:00.556Z,2.03
2022-12-20T02:59:42.729Z,1.90
2022-12-20T03:02:11.022Z,2.00
2022-12-20T03:04:41.892Z,1.97
2022-12-20T03:07:13.845Z,2.60
2022-12-20T03:09:43.792Z,2.43
2022-12-20T03:12:13.231Z,2.37
2022-12-20T03:14:40.762Z,1.77
2022-12-20T03:17:10.041Z,2.10
2022-12-20T03:19:36.895Z,1.97
2022-12-20T03:22:03.963Z,2.13
2022-12-20T03:24:32.511Z,1.80
2022-12-20T03:27:00.104Z,2.07
2022-12-20T03:29:27.152Z,2.73
2022-12-20T03:31:53.958Z,2.37
2022-12-20T03:34:20.688Z,2.20
2022-12-20T03:36:47.585Z,2.23
2022-12-20T03:39:14.285Z,2.13
2022-12-20T03:41:41.174Z,2.10
2022-12-20T03:44:08.257Z,2.20
2022-12-20T03:46:35.138Z,2.13
2022-12-20T03:49:01.903Z,2.27
2022-12-20T03:51:28.705Z,2.40
2022-12-20T03:53:55.632Z,2.20
2022-12-20T03:56:22.521Z,1.97
2022-12-20T03:58:49.337Z,2.13
2022-12-20T04:01:27.092Z,1.80
2022-12-20T04:03:54.192Z,1.90
2022-12-20T04:06:22.637Z,1.83
2022-12-20T04:08:51.552Z,2.30
2022-12-20T04:11:18.636Z,1.80
2022-12-20T04:13:52.641Z,2.10
2022-12-20T04:16:24.019Z,2.20
2022-12-20T04:18:50.964Z,2.60
2022-12-20T04:21:23.840Z,2.07
2022-12-20T04:23:51.027Z,2.00
2022-12-20T04:26:18.088Z,2.00
2022-12-20T04:28:44.910Z,1.97
2022-12-20T04:31:13.517Z,2.13
2022-12-20T04:33:41.842Z,2.27
2022-12-20T04:36:10.200Z,1.83
2022-12-20T04:38:37.031Z,1.87
2022-12-20T04:41:03.859Z,1.87
2022-12-20T04:43:30.672Z,2.10
2022-12-20T04:45:57.752Z,1.80
2022-12-20T04:51:14.938Z,2.13
2022-12-20T04:53:48.070Z,2.00
2022-12-20T04:56:28.527Z,2.43
2022-12-20T04:58:58.274Z,2.27
2022-12-20T05:01:25.894Z,1.90
2022-12-20T05:03:53.667Z,2.17
2022-12-20T05:06:20.684Z,1.83
2022-12-20T05:08:50.440Z,2.20
2022-12-20T05:11:17.611Z,2.33
2022-12-20T05:13:44.476Z,1.83
2022-12-20T05:16:11.338Z,2.20
2022-12-20T05:18:43.038Z,2.10
2022-12-20T05:21:39.342Z,2.40
2022-12-20T05:24:25.764Z,1.67
2022-12-20T05:26:52.614Z,2.30
2022-12-20T05:29:19.462Z,2.40
2022-12-20T05:31:46.472Z,2.27
2022-12-20T05:34:13.309Z,1.87
2022-12-20T05:36:39.992Z,2.20
2022-12-20T05:39:06.838Z,2.30
2022-12-20T05:41:33.640Z,2.43
2022-12-20T05:44:00.725Z,2.10
2022-12-20T05:46:27.609Z,2.17
2022-12-20T05:48:54.913Z,2.17
2022-12-20T05:51:21.847Z,2.17
2022-12-20T05:53:48.612Z,2.47
2022-12-20T05:56:15.398Z,2.40
2022-12-20T05:58:42.420Z,2.07
2022-12-20T06:01:10.549Z,1.90
2022-12-20T06:03:40.462Z,2.00
2022-12-20T06:06:13.889Z,1.90
2022-12-20T06:08:44.740Z,2.20
2022-12-20T06:11:11.543Z,2.07
2022-12-20T06:13:38.313Z,2.30
2022-12-20T06:16:05.379Z,2.63
2022-12-20T06:18:32.225Z,2.33
2022-12-20T06:20:59.305Z,2.07
2022-12-20T06:23:28.721Z,1.93
2022-12-20T06:25:55.706Z,2.23
2022-12-20T06:28:22.611Z,2.00
2022-12-20T06:31:12.694Z,1.80
2022-12-20T06:33:39.884Z,2.10
2022-12-20T06:36:07.115Z,1.90
2022-12-20T06:38:34.022Z,1.93
2022-12-20T06:41:00.971Z,1.83
2022-12-20T06:43:28.863Z,1.63
2022-12-20T06:45:55.836Z,1.77
2022-12-20T06:48:22.792Z,1.60
2022-12-20T06:50:55.750Z,2.13
2022-12-20T06:53:25.518Z,1.67
2022-12-20T06:55:52.443Z,1.80
2022-12-20T06:58:20.581Z,1.33
2022-12-20T07:00:47.960Z,1.80
2022-12-20T07:03:15.111Z,1.90
2022-12-20T07:05:42.205Z,1.57
2022-12-20T07:08:10.190Z,1.80
2022-12-20T07:10:38.164Z,2.28
2022-12-20T07:13:05.219Z,1.92
2022-12-20T07:15:32.143Z,1.70
2022-12-20T07:17:59.983Z,1.30
2022-12-20T07:20:27.482Z,1.53
2022-12-20T07:22:54.455Z,1.40
2022-12-20T07:25:21.580Z,1.70
2022-12-20T07:27:50.000Z,1.77
2022-12-20T07:30:21.761Z,1.63
2022-12-20T07:32:48.898Z,1.63
2022-12-20T07:35:16.548Z,1.60
2022-12-20T07:37:43.450Z,1.40
2022-12-20T07:40:12.817Z,1.30
2022-12-20T07:42:46.149Z,2.10
2022-12-20T07:45:16.459Z,1.47
2022-12-20T07:47:43.907Z,1.40
2022-12-20T07:50:12.212Z,1.80
2022-12-20T07:52:44.709Z,1.90
2022-12-20T07:55:13.100Z,1.80
2022-12-20T07:57:52.860Z,1.90
2022-12-20T08:00:20.137Z,1.63
2022-12-20T08:02:53.970Z,2.10
2022-12-20T08:05:22.281Z,1.50
2022-12-20T08:07:55.105Z,1.83
2022-12-20T08:10:27.343Z,1.57
2022-12-20T08:12:56.095Z,1.43
2022-12-20T08:15:23.944Z,1.50
2022-12-20T08:17:51.320Z,1.63
2022-12-20T08:20:18.411Z,1.60
2022-12-20T08:22:45.337Z,1.60
2022-12-20T08:25:12.284Z,1.50
2022-12-20T08:27:39.285Z,1.60
2022-12-20T08:30:08.511Z,2.00
2022-12-20T08:32:36.344Z,1.80
2022-12-20T08:35:05.753Z,1.53
2022-12-20T08:37:33.092Z,1.17
2022-12-20T08:40:00.927Z,1.33
2022-12-20T08:42:28.474Z,1.37
2022-12-20T08:44:56.206Z,2.00
2022-12-20T08:47:25.468Z,1.77
2022-12-20T08:49:52.398Z,1.50
2022-12-20T08:52:19.335Z,1.70
2022-12-20T08:54:46.262Z,1.77
2022-12-20T08:57:13.764Z,1.37
2022-12-20T08:59:40.652Z,1.73
2022-12-20T09:02:07.804Z,1.73
2022-12-20T09:04:35.016Z,1.33
2022-12-20T09:07:02.061Z,1.50
2022-12-20T09:09:29.057Z,1.50
2022-12-20T09:11:56.041Z,1.87
2022-12-20T09:14:23.467Z,1.60
2022-12-20T09:16:50.413Z,1.87
2022-12-20T09:19:17.344Z,1.60
2022-12-20T09:21:44.228Z,1.70
2022-12-20T09:24:11.279Z,1.73
2022-12-20T09:26:38.385Z,1.70
2022-12-20T09:29:05.796Z,1.50
2022-12-20T09:31:32.975Z,1.83
2022-12-20T09:34:01.182Z,1.50
2022-12-20T09:36:30.106Z,1.30
2022-12-20T09:38:59.157Z,2.23
2022-12-20T09:41:37.290Z,1.60
2022-12-20T09:44:26.227Z,1.67
2022-12-20T09:47:09.805Z,1.60
2022-12-20T09:49:45.744Z,1.60
2022-12-20T09:52:58.037Z,1.60
2022-12-20T09:55:54.876Z,1.70
2022-12-20T09:59:26.866Z,1.30
2022-12-20T10:01:54.014Z,2.00
2022-12-20T10:04:31.436Z,1.80
2022-12-20T10:07:11.838Z,1.90
2022-12-20T10:10:18.500Z,1.73
2022-12-20T10:13:25.202Z,1.90
2022-12-20T10:16:23.650Z,2.03
2022-12-20T10:19:19.611Z,1.97
2022-12-20T10:22:01.336Z,1.80
2022-12-20T10:24:32.929Z,1.80
2022-12-20T10:27:21.523Z,2.10
2022-12-20T10:29:51.898Z,2.10
2022-12-20T10:32:23.535Z,2.13
2022-12-20T10:35:10.706Z,1.60
2022-12-20T10:37:44.340Z,1.87
2022-12-20T10:41:10.339Z,1.53
2022-12-20T10:43:26.140Z,1.77
2022-12-20T10:46:03.517Z,2.27
2022-12-20T10:48:40.648Z,2.00
2022-12-20T10:51:15.514Z,1.90
2022-12-20T10:54:20.086Z,2.47
2022-12-20T10:57:00.666Z,2.00
2022-12-20T10:59:36.708Z,2.30
2022-12-20T11:02:40.771Z,2.00
2022-12-20T11:05:12.332Z,1.80
2022-12-20T11:10:46.257Z,2.17
2022-12-20T11:13:26.958Z,2.27
2022-12-20T11:15:57.808Z,2.13
2022-12-20T11:18:56.266Z,2.07
2022-12-20T11:21:47.871Z,2.10
2022-12-20T11:24:57.956Z,2.87
2022-12-20T11:28:09.039Z,1.97
2022-12-20T11:31:00.529Z,3.10
2022-12-20T11:34:01.173Z,2.13
2022-12-20T11:37:02.146Z,2.00
2022-12-20T11:40:08.737Z,2.50
2022-12-20T11:42:58.855Z,2.20
2022-12-20T11:45:45.856Z,1.70
2022-12-20T11:48:51.137Z,2.20
2022-12-20T11:51:30.331Z,2.53
2022-12-20T11:54:12.374Z,1.97
2022-12-20T11:56:45.348Z,2.50
2022-12-20T11:59:38.859Z,2.80
2022-12-20T12:02:22.360Z,2.23
2022-12-20T12:05:21.809Z,2.50
2022-12-20T12:07:59.496Z,2.33
2022-12-20T12:10:57.856Z,2.40
2022-12-20T12:13:33.519Z,2.33
2022-12-20T12:16:31.109Z,2.30
2022-12-20T12:19:01.486Z,2.40
2022-12-20T12:21:44.429Z,2.43
2022-12-20T12:24:35.853Z,2.47
2022-12-20T12:27:03.119Z,2.73
2022-12-20T12:29:34.069Z,2.57
2022-12-20T12:32:10.679Z,2.50
2022-12-20T12:34:49.429Z,2.07
2022-12-20T12:38:04.021Z,3.23
2022-12-20T12:40:54.976Z,1.87
2022-12-20T12:43:40.465Z,2.30
2022-12-20T12:46:22.906Z,2.77
2022-12-20T12:49:17.680Z,2.60
2022-12-20T12:51:54.092Z,2.17
2022-12-20T12:54:41.433Z,2.30
2022-12-20T12:57:17.032Z,2.60
2022-12-20T12:59:51.937Z,2.40
2022-12-20T13:02:20.895Z,2.20
2022-12-20T13:05:10.655Z,2.83
2022-12-20T13:07:39.308Z,2.43
2022-12-20T13:10:25.564Z,2.50
2022-12-20T13:12:52.828Z,2.53
2022-12-20T13:15:19.649Z,2.73
2022-12-20T13:17:53.794Z,2.83
2022-12-20T13:20:28.011Z,2.47
2022-12-20T13:23:12.768Z,2.70
2022-12-20T13:25:47.197Z,2.60
2022-12-20T13:28:19.805Z,2.75
2022-12-20T13:31:09.973Z,2.43
2022-12-20T13:33:53.974Z,2.67
2022-12-20T13:36:37.965Z,3.00
2022-12-20T13:39:37.983Z,2.67
2022-12-20T13:42:37.141Z,2.97
2022-12-20T13:45:11.283Z,3.70
2022-12-20T13:47:52.251Z,2.73
2022-12-20T13:50:26.294Z,2.47
2022-12-20T13:52:55.327Z,2.83
2022-12-20T13:55:33.675Z,3.07
2022-12-20T13:58:34.395Z,2.50
2022-12-20T14:01:13.107Z,2.57
2022-12-20T14:03:48.083Z,2.70
2022-12-20T14:06:26.090Z,2.77
2022-12-20T14:08:54.381Z,2.60
2022-12-20T14:11:27.113Z,2.50
2022-12-20T14:13:57.896Z,2.80
2022-12-20T14:16:28.341Z,2.83
2022-12-20T14:18:58.210Z,2.77
2022-12-20T14:21:26.693Z,3.17
2022-12-20T14:23:59.715Z,3.00
2022-12-20T14:26:45.699Z,3.20
2022-12-20T14:29:23.650Z,3.10
2022-12-20T14:31:51.107Z,2.80
2022-12-20T14:34:29.712Z,2.70
2022-12-20T14:37:36.145Z,3.27
2022-12-20T14:40:12.529Z,3.87
2022-12-20T14:42:41.388Z,3.40
2022-12-20T14:45:14.109Z,3.13
2022-12-20T14:48:03.533Z,2.93
2022-12-20T14:50:35.166Z,3.00
2022-12-20T14:53:03.353Z,3.37
2022-12-20T14:55:45.439Z,2.93
2022-12-20T14:58:32.268Z,3.47
2022-12-20T15:01:27.119Z,3.23
2022-12-20T15:03:57.990Z,2.83
2022-12-20T15:06:53.723Z,3.40
2022-12-20T15:09:22.221Z,3.53
2022-12-20T15:11:51.738Z,3.30
2022-12-20T15:14:42.639Z,3.47
2022-12-20T15:17:14.565Z,3.90
2022-12-20T15:19:43.042Z,3.77
2022-12-20T15:22:18.514Z,4.03
2022-12-20T15:24:47.728Z,3.83
2022-12-20T15:27:15.952Z,4.07
2022-12-20T15:29:43.373Z,4.37
2022-12-20T15:32:29.851Z,4.23
2022-12-20T15:34:57.068Z,4.50
2022-12-20T15:37:26.269Z,4.70
2022-12-20T15:39:53.144Z,4.40
2022-12-20T15:42:23.398Z,4.73
2022-12-20T15:44:50.657Z,4.77
2022-12-20T15:47:19.879Z,4.17
2022-12-20T15:49:50.490Z,5.63
2022-12-20T15:52:23.907Z,5.30
2022-12-20T15:54:51.156Z,4.70
2022-12-20T15:57:18.133Z,5.30
2022-12-20T16:00:03.469Z,5.30
2022-12-20T16:02:33.344Z,5.23
2022-12-20T16:05:01.542Z,5.67
2022-12-20T16:07:28.525Z,6.20
2022-12-20T16:09:55.533Z,5.77
2022-12-20T16:12:35.470Z,5.87
2022-12-20T16:15:02.622Z,5.77
2022-12-20T16:17:29.597Z,5.70
2022-12-20T16:19:56.512Z,8.50
2022-12-20T16:22:24.965Z,6.13
2022-12-20T16:24:54.002Z,6.10
2022-12-20T16:27:21.630Z,6.43
2022-12-20T16:29:48.545Z,5.85
2022-12-20T16:32:19.096Z,6.23
2022-12-20T16:34:46.493Z,6.10
2022-12-20T16:37:13.892Z,6.07
2022-12-20T16:39:42.285Z,5.63
2022-12-20T16:42:22.269Z,8.43
2022-12-20T16:44:54.309Z,6.37
2022-12-20T16:47:21.787Z,6.03
2022-12-20T16:49:52.857Z,6.17
2022-12-20T16:52:22.860Z,5.40
2022-12-20T16:54:50.535Z,5.97
2022-12-20T16:57:17.590Z,6.17
2022-12-20T16:59:44.650Z,6.23
2022-12-20T17:02:41.099Z,6.00
2022-12-20T17:05:22.050Z,6.10
2022-12-20T17:07:49.282Z,6.07
2022-12-20T17:10:17.287Z,6.10
2022-12-20T17:12:45.432Z,6.47
2022-12-20T17:15:26.541Z,6.53
2022-12-20T17:17:54.284Z,6.57
2022-12-20T17:20:24.931Z,6.90
2022-12-20T17:22:54.958Z,7.20
2022-12-20T17:25:32.913Z,6.37
2022-12-20T17:27:59.756Z,7.00
2022-12-20T17:30:26.673Z,7.10
2022-12-20T17:32:54.190Z,6.67
2022-12-20T17:35:30.547Z,6.83
2022-12-20T17:37:58.353Z,6.93
2022-12-20T17:40:29.354Z,7.47
2022-12-20T17:42:58.715Z,7.43
2022-12-20T17:45:36.074Z,7.97
2022-12-20T17:48:03.119Z,8.57
2022-12-20T17:50:30.001Z,7.63
2022-12-20T17:52:56.945Z,8.03
2022-12-20T17:55:28.753Z,8.13
2022-12-20T17:57:56.462Z,9.00
2022-12-20T18:00:38.546Z,18.33
2022-12-20T18:03:30.211Z,30.83
2022-12-20T18:06:01.019Z,43.53
2022-12-20T18:08:34.161Z,22.77
2022-12-20T18:11:01.008Z,16.63
2022-12-20T18:13:29.053Z,26.57
2022-12-20T18:15:59.029Z,46.27
2022-12-20T18:18:25.824Z,20.03
2022-12-20T18:21:06.077Z,13.57
2022-12-20T18:23:37.139Z,11.43
2022-12-20T18:26:20.947Z,10.37
2022-12-20T18:28:50.939Z,10.27
2022-12-20T18:31:21.699Z,10.07
2022-12-20T18:33:53.861Z,10.43
2022-12-20T18:36:30.219Z,11.17
2022-12-20T18:39:07.220Z,10.50
2022-12-20T18:41:35.565Z,10.03
2022-12-20T18:44:06.644Z,10.77
2022-12-20T18:46:34.539Z,10.83
2022-12-20T18:49:04.637Z,10.63
2022-12-20T18:51:38.043Z,10.77
2022-12-20T18:54:11.882Z,11.23
2022-12-20T18:56:41.791Z,10.33
2022-12-20T18:59:13.062Z,11.13
2022-12-20T19:01:44.652Z,10.43
2022-12-20T19:04:12.030Z,11.17
2022-12-20T19:06:41.831Z,11.77
2022-12-20T19:09:13.226Z,12.10
2022-12-20T19:11:42.089Z,11.73
2022-12-20T19:14:11.437Z,11.57
2022-12-20T19:16:39.849Z,12.00
2022-12-20T19:19:08.817Z,11.93
2022-12-20T19:21:38.086Z,12.20
2022-12-20T19:24:07.972Z,11.57
2022-12-20T19:26:37.063Z,12.63
2022-12-20T19:29:06.032Z,13.17
2022-12-20T19:31:36.431Z,12.73
2022-12-20T19:34:11.579Z,12.43
2022-12-20T19:36:45.592Z,12.80
2022-12-20T19:39:24.741Z,12.63
2022-12-20T19:42:22.533Z,13.50
2022-12-20T19:44:39.428Z,13.03
2022-12-20T19:47:06.540Z,13.87
2022-12-20T19:49:38.791Z,14.67
2022-12-20T19:52:06.886Z,13.30
2022-12-20T19:54:35.119Z,14.53
2022-12-20T19:57:03.898Z,15.97
2022-12-20T19:59:33.662Z,14.33
2022-12-20T20:02:00.793Z,16.07
2022-12-20T20:04:28.140Z,15.17
2022-12-20T20:06:56.324Z,15.57
2022-12-20T20:09:23.185Z,16.10
2022-12-20T20:11:50.660Z,15.80
2022-12-20T20:14:17.359Z,15.60
2022-12-20T20:16:44.230Z,16.07
2022-12-20T20:19:11.150Z,17.27
2022-12-20T20:21:38.095Z,15.27
2022-12-20T20:24:05.572Z,17.10
2022-12-20T20:26:32.446Z,16.63
2022-12-20T20:29:02.117Z,17.60
2022-12-20T20:31:29.570Z,17.50
2022-12-20T20:33:58.562Z,16.93
2022-12-20T20:36:25.529Z,16.53
2022-12-20T20:38:52.361Z,19.20
2022-12-20T20:41:19.731Z,16.60
2022-12-20T20:43:46.587Z,17.50
2022-12-20T20:46:15.947Z,17.97
2022-12-20T20:48:44.958Z,17.93
2022-12-20T20:51:12.662Z,18.33
2022-12-20T20:53:39.750Z,17.00
2022-12-20T20:56:07.765Z,19.17
2022-12-20T20:58:36.674Z,18.27
2022-12-20T21:01:08.417Z,19.93
2022-12-20T21:03:36.188Z,18.07
2022-12-20T21:08:52.819Z,19.03
2022-12-20T21:11:19.736Z,18.97
2022-12-20T21:13:46.661Z,18.63
2022-12-20T21:16:20.590Z,19.50
2022-12-20T21:18:56.564Z,17.83
2022-12-20T21:21:25.182Z,19.67
2022-12-20T21:23:53.191Z,19.13
2022-12-20T21:26:21.854Z,18.43
2022-12-20T21:28:48.653Z,19.47
2022-12-20T21:31:19.352Z,18.33
2022-12-20T21:33:46.380Z,17.97
2022-12-20T21:36:22.940Z,18.87
2022-12-20T21:38:55.488Z,18.07
2022-12-20T21:41:25.637Z,18.10
2022-12-20T21:43:59.411Z,19.40
2022-12-20T21:46:34.694Z,18.63
2022-12-20T21:49:06.822Z,18.53
2022-12-20T21:51:35.318Z,19.20
2022-12-20T21:54:11.893Z,18.50
2022-12-20T21:56:38.927Z,18.33
2022-12-20T21:59:05.786Z,18.30
2022-12-20T22:01:34.493Z,17.17
2022-12-20T22:04:04.423Z,16.97
2022-12-20T22:06:34.207Z,17.57
2022-12-20T22:09:09.162Z,17.83
2022-12-20T22:12:01.225Z,18.20
2022-12-20T22:14:31.052Z,16.93
2022-12-20T22:16:57.938Z,18.03
2022-12-20T22:19:26.936Z,18.53
2022-12-20T22:21:57.945Z,18.03
2022-12-20T22:24:27.860Z,17.77
2022-12-20T22:26:54.724Z,17.83
2022-12-20T22:29:21.823Z,17.13
2022-12-20T22:31:54.746Z,18.57
2022-12-20T22:34:21.609Z,17.17
2022-12-20T22:36:48.359Z,18.43
2022-12-20T22:39:15.257Z,17.47
2022-12-20T22:41:45.422Z,16.97
2022-12-20T22:44:15.387Z,17.70
2022-12-20T22:46:42.133Z,17.70
2022-12-20T22:49:17.489Z,17.63
2022-12-20T22:51:47.350Z,17.23
2022-12-20T22:54:18.054Z,17.03
2022-12-20T22:56:44.770Z,16.47
2022-12-20T22:59:14.596Z,16.30
2022-12-20T23:01:41.457Z,16.00
2022-12-20T23:04:08.980Z,16.37
2022-12-20T23:06:35.804Z,15.50
2022-12-20T23:09:02.622Z,16.77
2022-12-20T23:11:49.043Z,16.17
2022-12-20T23:14:38.537Z,16.13
2022-12-20T23:17:07.822Z,16.67
2022-12-20T23:19:54.160Z,15.10
2022-12-20T23:22:38.368Z,15.73
2022-12-20T23:25:14.253Z,15.83
2022-12-20T23:27:44.271Z,16.00
2022-12-20T23:30:15.317Z,16.57
2022-12-20T23:32:44.292Z,15.70
2022-12-20T23:35:13.510Z,16.10
2022-12-20T23:37:41.019Z,15.37
2022-12-20T23:40:11.604Z,15.40
2022-12-20T23:42:40.261Z,15.20
2022-12-20T23:45:07.807Z,15.03
2022-12-20T23:47:34.556Z,15.33
2022-12-20T23:50:01.244Z,15.83
2022-12-20T23:52:28.247Z,14.00
2022-12-20T23:54:54.968Z,14.53
2022-12-20T23:57:21.695Z,14.37
2022-12-20T23:59:48.440Z,13.33
